sensor_id;sensor_type;location;lat;lon;timestamp;P1;durP1;ratioP1;P2;durP2;ratioP2
8040;SDS011;4063;48.140;10.250;2023-12-20T00:01:23;5.23;;;2.57;;
8040;SDS011;4063;48.140;10.250;2023-12-20T00:03:49;3.03;;;2.47;;
8040;SDS011;4063;48.140;10.250;2023-12-20T00:06:15;3.20;;;2.77;;
8040;SDS011;4063;48.140;10.250;2023-12-20T00:08:40;4.10;;;2.90;;
8040;SDS011;4063;48.140;10.250;2023-12-20T00:11:06;3.40;;;2.70;;
8040;SDS011;4063;48.140;10.250;2023-12-20T00:13:32;4.83;;;2.33;;
8040;SDS011;4063;48.140;10.250;2023-12-20T00:15:58;2.97;;;2.40;;
8040;SDS011;4063;48.140;10.250;2023-12-20T00:18:24;4.17;;;2.30;;
8040;SDS011;4063;48.140;10.250;2023-12-20T00:20:50;4.90;;;2.50;;
8040;SDS011;4063;48.140;10.250;2023-12-20T00:23:16;3.13;;;2.40;;
8040;SDS011;4063;48.140;10.250;2023-12-20T00:25:42;2.67;;;2.40;;
8040;SDS011;4063;48.140;10.250;2023-12-20T00:28:08;2.83;;;2.37;;
8040;SDS011;4063;48.140;10.250;2023-12-20T00:30:34;2.30;;;2.10;;
8040;SDS011;4063;48.140;10.250;2023-12-20T00:33:01;3.33;;;2.60;;
8040;SDS011;4063;48.140;10.250;2023-12-20T00:35:27;3.03;;;2.23;;
8040;SDS011;4063;48.140;10.250;2023-12-20T00:37:53;2.47;;;2.20;;
8040;SDS011;4063;48.140;10.250;2023-12-20T00:40:19;3.00;;;2.40;;
8040;SDS011;4063;48.140;10.250;2023-12-20T00:42:45;3.37;;;2.37;;
8040;SDS011;4063;48.140;10.250;2023-12-20T00:45:12;2.87;;;2.30;;
8040;SDS011;4063;48.140;10.250;2023-12-20T00:47:38;2.47;;;2.17;;
8040;SDS011;4063;48.140;10.250;2023-12-20T00:50:04;3.37;;;2.40;;
8040;SDS011;4063;48.140;10.250;2023-12-20T00:52:30;2.87;;;2.20;;
8040;SDS011;4063;48.140;10.250;2023-12-20T00:54:56;3.00;;;2.50;;
8040;SDS011;4063;48.140;10.250;2023-12-20T00:57:22;2.43;;;2.20;;
8040;SDS011;4063;48.140;10.250;2023-12-20T00:59:48;2.87;;;2.20;;
8040;SDS011;4063;48.140;10.250;2023-12-20T01:02:14;2.37;;;2.17;;
8040;SDS011;4063;48.140;10.250;2023-12-20T01:04:40;3.10;;;2.60;;
8040;SDS011;4063;48.140;10.250;2023-12-20T01:07:06;3.10;;;2.40;;
8040;SDS011;4063;48.140;10.250;2023-12-20T01:09:32;2.97;;;2.27;;
8040;SDS011;4063;48.140;10.250;2023-12-20T01:11:58;2.90;;;2.53;;
8040;SDS011;4063;48.140;10.250;2023-12-20T01:14:24;3.07;;;2.40;;
8040;SDS011;4063;48.140;10.250;2023-12-20T01:16:50;2.40;;;2.20;;
8040;SDS011;4063;48.140;10.250;2023-12-20T01:19:16;3.17;;;2.73;;
8040;SDS011;4063;48.140;10.250;2023-12-20T01:21:42;2.73;;;2.43;;
8040;SDS011;4063;48.140;10.250;2023-12-20T01:24:08;2.80;;;2.50;;
8040;SDS011;4063;48.140;10.250;2023-12-20T01:26:34;3.60;;;2.63;;
8040;SDS011;4063;48.140;10.250;2023-12-20T01:29:00;2.63;;;2.43;;
8040;SDS011;4063;48.140;10.250;2023-12-20T01:31:26;3.10;;;2.80;;
8040;SDS011;4063;48.140;10.250;2023-12-20T01:33:52;3.87;;;2.93;;
8040;SDS011;4063;48.140;10.250;2023-12-20T01:36:18;3.40;;;2.40;;
8040;SDS011;4063;48.140;10.250;2023-12-20T01:38:44;3.27;;;2.50;;
8040;SDS011;4063;48.140;10.250;2023-12-20T01:41:10;3.07;;;2.30;;
8040;SDS011;4063;48.140;10.250;2023-12-20T01:43:36;3.00;;;2.53;;
8040;SDS011;4063;48.140;10.250;2023-12-20T01:46:02;3.20;;;2.80;;
8040;SDS011;4063;48.140;10.250;2023-12-20T01:48:28;3.33;;;3.03;;
8040;SDS011;4063;48.140;10.250;2023-12-20T01:50:57;3.47;;;2.63;;
8040;SDS011;4063;48.140;10.250;2023-12-20T01:53:23;2.90;;;2.60;;
8040;SDS011;4063;48.140;10.250;2023-12-20T01:55:50;3.00;;;2.70;;
8040;SDS011;4063;48.140;10.250;2023-12-20T01:58:16;2.83;;;2.60;;
8040;SDS011;4063;48.140;10.250;2023-12-20T02:00:42;3.73;;;2.67;;
8040;SDS011;4063;48.140;10.250;2023-12-20T02:03:08;3.10;;;2.77;;
8040;SDS011;4063;48.140;10.250;2023-12-20T02:05:35;2.90;;;2.60;;
8040;SDS011;4063;48.140;10.250;2023-12-20T02:08:04;3.70;;;2.60;;
8040;SDS011;4063;48.140;10.250;2023-12-20T02:10:30;2.97;;;2.67;;
8040;SDS011;4063;48.140;10.250;2023-12-20T02:12:57;2.47;;;2.20;;
8040;SDS011;4063;48.140;10.250;2023-12-20T02:15:23;4.27;;;3.47;;
8040;SDS011;4063;48.140;10.250;2023-12-20T02:17:49;2.70;;;2.50;;
8040;SDS011;4063;48.140;10.250;2023-12-20T02:20:16;3.00;;;2.70;;
8040;SDS011;4063;48.140;10.250;2023-12-20T02:22:42;2.60;;;2.40;;
8040;SDS011;4063;48.140;10.250;2023-12-20T02:25:08;2.93;;;2.60;;
8040;SDS011;4063;48.140;10.250;2023-12-20T02:27:34;3.47;;;3.10;;
8040;SDS011;4063;48.140;10.250;2023-12-20T02:30:00;2.83;;;2.53;;
8040;SDS011;4063;48.140;10.250;2023-12-20T02:32:26;3.23;;;2.43;;
8040;SDS011;4063;48.140;10.250;2023-12-20T02:34:54;3.67;;;2.73;;
8040;SDS011;4063;48.140;10.250;2023-12-20T02:37:20;4.90;;;2.67;;
8040;SDS011;4063;48.140;10.250;2023-12-20T02:39:46;3.17;;;2.87;;
8040;SDS011;4063;48.140;10.250;2023-12-20T02:42:12;2.80;;;2.50;;
8040;SDS011;4063;48.140;10.250;2023-12-20T02:44:38;3.10;;;2.73;;
8040;SDS011;4063;48.140;10.250;2023-12-20T02:47:04;3.07;;;2.77;;
8040;SDS011;4063;48.140;10.250;2023-12-20T02:49:30;3.53;;;2.83;;
8040;SDS011;4063;48.140;10.250;2023-12-20T02:51:56;2.90;;;2.60;;
8040;SDS011;4063;48.140;10.250;2023-12-20T02:54:22;3.30;;;2.87;;
8040;SDS011;4063;48.140;10.250;2023-12-20T02:56:48;3.30;;;2.97;;
8040;SDS011;4063;48.140;10.250;2023-12-20T02:59:14;5.07;;;3.10;;
8040;SDS011;4063;48.140;10.250;2023-12-20T03:01:44;3.87;;;3.23;;
8040;SDS011;4063;48.140;10.250;2023-12-20T03:04:10;3.50;;;3.20;;
8040;SDS011;4063;48.140;10.250;2023-12-20T03:06:36;3.60;;;3.20;;
8040;SDS011;4063;48.140;10.250;2023-12-20T03:09:02;4.20;;;3.77;;
8040;SDS011;4063;48.140;10.250;2023-12-20T03:11:29;3.93;;;3.30;;
8040;SDS011;4063;48.140;10.250;2023-12-20T03:13:55;3.67;;;3.37;;
8040;SDS011;4063;48.140;10.250;2023-12-20T03:16:21;4.53;;;3.57;;
8040;SDS011;4063;48.140;10.250;2023-12-20T03:18:47;4.17;;;3.40;;
8040;SDS011;4063;48.140;10.250;2023-12-20T03:21:13;3.57;;;3.27;;
8040;SDS011;4063;48.140;10.250;2023-12-20T03:23:40;4.50;;;3.73;;
8040;SDS011;4063;48.140;10.250;2023-12-20T03:26:07;4.57;;;3.40;;
8040;SDS011;4063;48.140;10.250;2023-12-20T03:28:33;4.43;;;3.97;;
8040;SDS011;4063;48.140;10.250;2023-12-20T03:30:59;4.17;;;3.33;;
8040;SDS011;4063;48.140;10.250;2023-12-20T03:33:25;3.97;;;3.47;;
8040;SDS011;4063;48.140;10.250;2023-12-20T03:35:50;5.00;;;4.13;;
8040;SDS011;4063;48.140;10.250;2023-12-20T03:38:16;3.60;;;3.23;;
8040;SDS011;4063;48.140;10.250;2023-12-20T03:40:42;3.57;;;3.07;;
8040;SDS011;4063;48.140;10.250;2023-12-20T03:43:08;4.50;;;3.80;;
8040;SDS011;4063;48.140;10.250;2023-12-20T03:45:34;3.83;;;3.43;;
8040;SDS011;4063;48.140;10.250;2023-12-20T03:48:00;5.23;;;3.53;;
8040;SDS011;4063;48.140;10.250;2023-12-20T03:50:26;5.83;;;3.70;;
8040;SDS011;4063;48.140;10.250;2023-12-20T03:52:52;0.20;;;0.20;;
8040;SDS011;4063;48.140;10.250;2023-12-20T03:55:18;0.20;;;0.20;;
8040;SDS011;4063;48.140;10.250;2023-12-20T03:57:44;0.30;;;0.30;;
8040;SDS011;4063;48.140;10.250;2023-12-20T04:00:11;0.30;;;0.30;;
8040;SDS011;4063;48.140;10.250;2023-12-20T04:02:37;0.30;;;0.30;;
8040;SDS011;4063;48.140;10.250;2023-12-20T04:05:04;0.23;;;0.23;;
8040;SDS011;4063;48.140;10.250;2023-12-20T04:07:30;0.30;;;0.30;;
8040;SDS011;4063;48.140;10.250;2023-12-20T04:09:56;0.30;;;0.30;;
8040;SDS011;4063;48.140;10.250;2023-12-20T04:12:22;0.20;;;0.20;;
8040;SDS011;4063;48.140;10.250;2023-12-20T04:14:48;0.20;;;0.20;;
8040;SDS011;4063;48.140;10.250;2023-12-20T04:17:14;0.50;;;0.50;;
8040;SDS011;4063;48.140;10.250;2023-12-20T04:19:41;0.20;;;0.20;;
8040;SDS011;4063;48.140;10.250;2023-12-20T04:22:07;0.30;;;0.30;;
8040;SDS011;4063;48.140;10.250;2023-12-20T04:24:33;0.30;;;0.30;;
8040;SDS011;4063;48.140;10.250;2023-12-20T04:26:59;0.20;;;0.20;;
8040;SDS011;4063;48.140;10.250;2023-12-20T04:29:25;0.30;;;0.30;;
8040;SDS011;4063;48.140;10.250;2023-12-20T04:31:51;0.30;;;0.30;;
8040;SDS011;4063;48.140;10.250;2023-12-20T04:34:17;0.30;;;0.30;;
8040;SDS011;4063;48.140;10.250;2023-12-20T04:36:43;0.20;;;0.20;;
8040;SDS011;4063;48.140;10.250;2023-12-20T04:39:09;0.30;;;0.30;;
8040;SDS011;4063;48.140;10.250;2023-12-20T04:41:35;0.30;;;0.30;;
8040;SDS011;4063;48.140;10.250;2023-12-20T04:44:01;0.20;;;0.20;;
8040;SDS011;4063;48.140;10.250;2023-12-20T04:46:27;0.30;;;0.30;;
8040;SDS011;4063;48.140;10.250;2023-12-20T04:48:53;0.20;;;0.20;;
8040;SDS011;4063;48.140;10.250;2023-12-20T04:51:19;0.20;;;0.20;;
8040;SDS011;4063;48.140;10.250;2023-12-20T04:53:45;0.30;;;0.30;;
8040;SDS011;4063;48.140;10.250;2023-12-20T04:56:11;1.63;;;1.53;;
8040;SDS011;4063;48.140;10.250;2023-12-20T04:58:37;0.30;;;0.30;;
8040;SDS011;4063;48.140;10.250;2023-12-20T05:01:03;0.20;;;0.20;;
8040;SDS011;4063;48.140;10.250;2023-12-20T05:03:30;0.27;;;0.27;;
8040;SDS011;4063;48.140;10.250;2023-12-20T05:05:56;0.20;;;0.20;;
8040;SDS011;4063;48.140;10.250;2023-12-20T05:08:22;0.20;;;0.20;;
8040;SDS011;4063;48.140;10.250;2023-12-20T05:10:48;0.30;;;0.30;;
8040;SDS011;4063;48.140;10.250;2023-12-20T05:13:14;0.30;;;0.30;;
8040;SDS011;4063;48.140;10.250;2023-12-20T05:15:40;0.30;;;0.30;;
8040;SDS011;4063;48.140;10.250;2023-12-20T05:18:06;0.20;;;0.20;;
8040;SDS011;4063;48.140;10.250;2023-12-20T05:20:32;0.20;;;0.20;;
8040;SDS011;4063;48.140;10.250;2023-12-20T05:22:58;0.30;;;0.30;;
8040;SDS011;4063;48.140;10.250;2023-12-20T05:25:24;0.30;;;0.30;;
8040;SDS011;4063;48.140;10.250;2023-12-20T05:27:50;0.43;;;0.43;;
8040;SDS011;4063;48.140;10.250;2023-12-20T05:30:16;0.20;;;0.20;;
8040;SDS011;4063;48.140;10.250;2023-12-20T05:32:42;0.70;;;0.70;;
8040;SDS011;4063;48.140;10.250;2023-12-20T05:35:08;0.30;;;0.30;;
8040;SDS011;4063;48.140;10.250;2023-12-20T05:37:34;0.30;;;0.30;;
8040;SDS011;4063;48.140;10.250;2023-12-20T05:40:00;0.30;;;0.30;;
8040;SDS011;4063;48.140;10.250;2023-12-20T05:42:26;0.30;;;0.30;;
8040;SDS011;4063;48.140;10.250;2023-12-20T05:44:52;0.20;;;0.20;;
8040;SDS011;4063;48.140;10.250;2023-12-20T05:47:18;0.30;;;0.30;;
8040;SDS011;4063;48.140;10.250;2023-12-20T05:49:44;0.30;;;0.30;;
8040;SDS011;4063;48.140;10.250;2023-12-20T05:52:10;0.30;;;0.30;;
8040;SDS011;4063;48.140;10.250;2023-12-20T05:54:36;3.03;;;1.17;;
8040;SDS011;4063;48.140;10.250;2023-12-20T05:57:02;0.30;;;0.30;;
8040;SDS011;4063;48.140;10.250;2023-12-20T05:59:28;0.27;;;0.27;;
8040;SDS011;4063;48.140;10.250;2023-12-20T06:01:54;0.20;;;0.20;;
8040;SDS011;4063;48.140;10.250;2023-12-20T06:04:20;0.23;;;0.23;;
8040;SDS011;4063;48.140;10.250;2023-12-20T06:06:46;0.20;;;0.20;;
8040;SDS011;4063;48.140;10.250;2023-12-20T06:09:12;0.23;;;0.23;;
8040;SDS011;4063;48.140;10.250;2023-12-20T06:11:38;0.20;;;0.20;;
8040;SDS011;4063;48.140;10.250;2023-12-20T06:14:04;0.30;;;0.30;;
8040;SDS011;4063;48.140;10.250;2023-12-20T06:16:30;0.23;;;0.23;;
8040;SDS011;4063;48.140;10.250;2023-12-20T06:18:56;0.20;;;0.20;;
8040;SDS011;4063;48.140;10.250;2023-12-20T06:21:22;0.50;;;0.50;;
8040;SDS011;4063;48.140;10.250;2023-12-20T06:23:48;0.20;;;0.20;;
8040;SDS011;4063;48.140;10.250;2023-12-20T06:26:14;0.20;;;0.20;;
8040;SDS011;4063;48.140;10.250;2023-12-20T06:28:40;0.23;;;0.23;;
8040;SDS011;4063;48.140;10.250;2023-12-20T06:31:06;0.30;;;0.30;;
8040;SDS011;4063;48.140;10.250;2023-12-20T06:33:32;0.30;;;0.30;;
8040;SDS011;4063;48.140;10.250;2023-12-20T06:35:58;0.20;;;0.20;;
8040;SDS011;4063;48.140;10.250;2023-12-20T06:38:24;0.30;;;0.30;;
8040;SDS011;4063;48.140;10.250;2023-12-20T06:40:50;0.20;;;0.20;;
8040;SDS011;4063;48.140;10.250;2023-12-20T06:43:16;0.20;;;0.20;;
8040;SDS011;4063;48.140;10.250;2023-12-20T06:45:42;0.20;;;0.20;;
8040;SDS011;4063;48.140;10.250;2023-12-20T06:48:08;0.30;;;0.30;;
8040;SDS011;4063;48.140;10.250;2023-12-20T06:50:36;0.20;;;0.20;;
8040;SDS011;4063;48.140;10.250;2023-12-20T06:53:05;0.20;;;0.20;;
8040;SDS011;4063;48.140;10.250;2023-12-20T06:55:32;0.20;;;0.20;;
8040;SDS011;4063;48.140;10.250;2023-12-20T06:57:58;0.30;;;0.30;;
8040;SDS011;4063;48.140;10.250;2023-12-20T07:00:24;0.20;;;0.20;;
8040;SDS011;4063;48.140;10.250;2023-12-20T07:02:49;0.20;;;0.20;;
8040;SDS011;4063;48.140;10.250;2023-12-20T07:05:16;0.40;;;0.40;;
8040;SDS011;4063;48.140;10.250;2023-12-20T07:07:44;0.20;;;0.20;;
8040;SDS011;4063;48.140;10.250;2023-12-20T07:10:10;0.20;;;0.20;;
8040;SDS011;4063;48.140;10.250;2023-12-20T07:12:36;0.23;;;0.23;;
8040;SDS011;4063;48.140;10.250;2023-12-20T07:15:03;0.17;;;0.17;;
8040;SDS011;4063;48.140;10.250;2023-12-20T07:17:30;0.30;;;0.30;;
8040;SDS011;4063;48.140;10.250;2023-12-20T07:19:58;0.30;;;0.30;;
8040;SDS011;4063;48.140;10.250;2023-12-20T07:22:24;0.30;;;0.30;;
8040;SDS011;4063;48.140;10.250;2023-12-20T07:24:50;0.20;;;0.20;;
8040;SDS011;4063;48.140;10.250;2023-12-20T07:27:17;0.20;;;0.20;;
8040;SDS011;4063;48.140;10.250;2023-12-20T07:29:43;0.20;;;0.20;;
8040;SDS011;4063;48.140;10.250;2023-12-20T07:32:09;0.20;;;0.20;;
8040;SDS011;4063;48.140;10.250;2023-12-20T07:34:35;0.20;;;0.20;;
8040;SDS011;4063;48.140;10.250;2023-12-20T07:37:01;0.30;;;0.30;;
8040;SDS011;4063;48.140;10.250;2023-12-20T07:39:27;0.27;;;0.27;;
8040;SDS011;4063;48.140;10.250;2023-12-20T07:41:53;0.20;;;0.20;;
8040;SDS011;4063;48.140;10.250;2023-12-20T07:44:19;0.20;;;0.20;;
8040;SDS011;4063;48.140;10.250;2023-12-20T07:46:45;0.27;;;0.27;;
8040;SDS011;4063;48.140;10.250;2023-12-20T07:49:11;0.20;;;0.20;;
8040;SDS011;4063;48.140;10.250;2023-12-20T07:51:37;0.27;;;0.27;;
8040;SDS011;4063;48.140;10.250;2023-12-20T07:54:03;0.20;;;0.20;;
8040;SDS011;4063;48.140;10.250;2023-12-20T07:56:29;0.30;;;0.30;;
8040;SDS011;4063;48.140;10.250;2023-12-20T07:58:55;0.40;;;0.40;;
8040;SDS011;4063;48.140;10.250;2023-12-20T08:01:22;0.30;;;0.30;;
8040;SDS011;4063;48.140;10.250;2023-12-20T08:03:48;0.20;;;0.20;;
8040;SDS011;4063;48.140;10.250;2023-12-20T08:06:14;0.30;;;0.30;;
8040;SDS011;4063;48.140;10.250;2023-12-20T08:08:42;0.20;;;0.20;;
8040;SDS011;4063;48.140;10.250;2023-12-20T08:11:08;0.30;;;0.30;;
8040;SDS011;4063;48.140;10.250;2023-12-20T08:13:34;0.27;;;0.27;;
8040;SDS011;4063;48.140;10.250;2023-12-20T08:16:00;0.20;;;0.20;;
8040;SDS011;4063;48.140;10.250;2023-12-20T08:18:28;0.20;;;0.20;;
8040;SDS011;4063;48.140;10.250;2023-12-20T08:20:54;0.27;;;0.27;;
8040;SDS011;4063;48.140;10.250;2023-12-20T08:23:20;0.30;;;0.30;;
8040;SDS011;4063;48.140;10.250;2023-12-20T08:25:46;0.30;;;0.30;;
8040;SDS011;4063;48.140;10.250;2023-12-20T08:28:13;0.30;;;0.30;;
8040;SDS011;4063;48.140;10.250;2023-12-20T08:30:39;0.20;;;0.20;;
8040;SDS011;4063;48.140;10.250;2023-12-20T08:33:06;0.30;;;0.30;;
8040;SDS011;4063;48.140;10.250;2023-12-20T08:35:37;0.20;;;0.20;;
8040;SDS011;4063;48.140;10.250;2023-12-20T08:38:03;0.20;;;0.20;;
8040;SDS011;4063;48.140;10.250;2023-12-20T08:40:29;0.20;;;0.20;;
8040;SDS011;4063;48.140;10.250;2023-12-20T08:42:55;0.20;;;0.20;;
8040;SDS011;4063;48.140;10.250;2023-12-20T08:45:21;0.20;;;0.20;;
8040;SDS011;4063;48.140;10.250;2023-12-20T08:47:47;0.50;;;0.50;;
8040;SDS011;4063;48.140;10.250;2023-12-20T08:50:13;0.20;;;0.20;;
8040;SDS011;4063;48.140;10.250;2023-12-20T08:52:40;0.20;;;0.20;;
8040;SDS011;4063;48.140;10.250;2023-12-20T08:55:07;0.70;;;0.70;;
8040;SDS011;4063;48.140;10.250;2023-12-20T08:57:33;0.30;;;0.30;;
8040;SDS011;4063;48.140;10.250;2023-12-20T08:59:59;0.27;;;0.27;;
8040;SDS011;4063;48.140;10.250;2023-12-20T09:02:25;0.20;;;0.20;;
8040;SDS011;4063;48.140;10.250;2023-12-20T09:04:51;0.27;;;0.27;;
8040;SDS011;4063;48.140;10.250;2023-12-20T09:07:20;0.30;;;0.30;;
8040;SDS011;4063;48.140;10.250;2023-12-20T09:09:47;0.20;;;0.20;;
8040;SDS011;4063;48.140;10.250;2023-12-20T09:12:13;0.30;;;0.30;;
8040;SDS011;4063;48.140;10.250;2023-12-20T09:14:39;0.20;;;0.20;;
8040;SDS011;4063;48.140;10.250;2023-12-20T09:17:05;0.20;;;0.20;;
8040;SDS011;4063;48.140;10.250;2023-12-20T09:19:33;0.20;;;0.20;;
8040;SDS011;4063;48.140;10.250;2023-12-20T09:21:59;0.27;;;0.27;;
8040;SDS011;4063;48.140;10.250;2023-12-20T09:24:25;0.20;;;0.20;;
8040;SDS011;4063;48.140;10.250;2023-12-20T09:26:51;0.20;;;0.20;;
8040;SDS011;4063;48.140;10.250;2023-12-20T09:29:17;0.30;;;0.30;;
8040;SDS011;4063;48.140;10.250;2023-12-20T09:31:44;0.23;;;0.23;;
8040;SDS011;4063;48.140;10.250;2023-12-20T09:34:11;0.30;;;0.30;;
8040;SDS011;4063;48.140;10.250;2023-12-20T09:36:37;0.20;;;0.20;;
8040;SDS011;4063;48.140;10.250;2023-12-20T09:39:07;0.20;;;0.20;;
8040;SDS011;4063;48.140;10.250;2023-12-20T09:41:34;0.20;;;0.20;;
8040;SDS011;4063;48.140;10.250;2023-12-20T09:44:02;0.20;;;0.20;;
8040;SDS011;4063;48.140;10.250;2023-12-20T09:46:29;0.20;;;0.20;;
8040;SDS011;4063;48.140;10.250;2023-12-20T09:48:57;0.30;;;0.30;;
8040;SDS011;4063;48.140;10.250;2023-12-20T09:51:24;0.30;;;0.30;;
8040;SDS011;4063;48.140;10.250;2023-12-20T09:53:50;0.20;;;0.20;;
8040;SDS011;4063;48.140;10.250;2023-12-20T09:56:20;0.30;;;0.30;;
8040;SDS011;4063;48.140;10.250;2023-12-20T09:58:46;0.30;;;0.30;;
8040;SDS011;4063;48.140;10.250;2023-12-20T10:01:12;0.20;;;0.20;;
8040;SDS011;4063;48.140;10.250;2023-12-20T10:03:39;0.20;;;0.20;;
8040;SDS011;4063;48.140;10.250;2023-12-20T10:06:05;0.30;;;0.30;;
8040;SDS011;4063;48.140;10.250;2023-12-20T10:08:31;0.30;;;0.30;;
8040;SDS011;4063;48.140;10.250;2023-12-20T10:10:57;0.30;;;0.30;;
8040;SDS011;4063;48.140;10.250;2023-12-20T10:13:27;0.20;;;0.20;;
8040;SDS011;4063;48.140;10.250;2023-12-20T10:15:54;0.20;;;0.20;;
8040;SDS011;4063;48.140;10.250;2023-12-20T10:18:20;0.30;;;0.30;;
8040;SDS011;4063;48.140;10.250;2023-12-20T10:20:46;0.20;;;0.20;;
8040;SDS011;4063;48.140;10.250;2023-12-20T10:23:12;0.30;;;0.30;;
8040;SDS011;4063;48.140;10.250;2023-12-20T10:25:39;0.30;;;0.30;;
8040;SDS011;4063;48.140;10.250;2023-12-20T10:28:10;0.23;;;0.23;;
8040;SDS011;4063;48.140;10.250;2023-12-20T10:30:37;0.30;;;0.30;;
8040;SDS011;4063;48.140;10.250;2023-12-20T10:33:03;0.30;;;0.30;;
8040;SDS011;4063;48.140;10.250;2023-12-20T10:35:31;0.20;;;0.20;;
8040;SDS011;4063;48.140;10.250;2023-12-20T10:37:57;0.20;;;0.20;;
8040;SDS011;4063;48.140;10.250;2023-12-20T10:40:24;0.30;;;0.30;;
8040;SDS011;4063;48.140;10.250;2023-12-20T10:42:50;0.20;;;0.20;;
8040;SDS011;4063;48.140;10.250;2023-12-20T10:45:16;0.27;;;0.27;;
8040;SDS011;4063;48.140;10.250;2023-12-20T10:47:43;0.30;;;0.30;;
8040;SDS011;4063;48.140;10.250;2023-12-20T10:50:12;0.20;;;0.20;;
8040;SDS011;4063;48.140;10.250;2023-12-20T10:52:38;0.20;;;0.20;;
8040;SDS011;4063;48.140;10.250;2023-12-20T10:55:04;0.20;;;0.20;;
8040;SDS011;4063;48.140;10.250;2023-12-20T10:57:30;0.20;;;0.20;;
8040;SDS011;4063;48.140;10.250;2023-12-20T10:59:57;0.20;;;0.20;;
8040;SDS011;4063;48.140;10.250;2023-12-20T11:02:26;0.30;;;0.30;;
8040;SDS011;4063;48.140;10.250;2023-12-20T11:04:58;0.20;;;0.20;;
8040;SDS011;4063;48.140;10.250;2023-12-20T11:07:33;0.20;;;0.20;;
8040;SDS011;4063;48.140;10.250;2023-12-20T11:10:10;0.30;;;0.30;;
8040;SDS011;4063;48.140;10.250;2023-12-20T11:12:53;0.20;;;0.20;;
8040;SDS011;4063;48.140;10.250;2023-12-20T11:15:20;0.30;;;0.30;;
8040;SDS011;4063;48.140;10.250;2023-12-20T11:17:54;0.30;;;0.30;;
8040;SDS011;4063;48.140;10.250;2023-12-20T11:20:21;0.20;;;0.20;;
8040;SDS011;4063;48.140;10.250;2023-12-20T11:22:54;0.30;;;0.30;;
8040;SDS011;4063;48.140;10.250;2023-12-20T11:25:21;0.20;;;0.20;;
8040;SDS011;4063;48.140;10.250;2023-12-20T11:30:48;0.13;;;0.13;;
8040;SDS011;4063;48.140;10.250;2023-12-20T11:33:15;0.20;;;0.20;;
8040;SDS011;4063;48.140;10.250;2023-12-20T11:35:41;0.30;;;0.30;;
8040;SDS011;4063;48.140;10.250;2023-12-20T11:38:10;0.30;;;0.30;;
8040;SDS011;4063;48.140;10.250;2023-12-20T11:40:37;0.30;;;0.30;;
8040;SDS011;4063;48.140;10.250;2023-12-20T11:43:03;0.20;;;0.20;;
8040;SDS011;4063;48.140;10.250;2023-12-20T11:45:32;0.30;;;0.30;;
8040;SDS011;4063;48.140;10.250;2023-12-20T11:48:00;2.63;;;1.90;;
8040;SDS011;4063;48.140;10.250;2023-12-20T11:50:27;3.30;;;2.60;;
8040;SDS011;4063;48.140;10.250;2023-12-20T11:52:54;2.97;;;2.13;;
8040;SDS011;4063;48.140;10.250;2023-12-20T11:55:21;3.33;;;2.43;;
8040;SDS011;4063;48.140;10.250;2023-12-20T11:57:47;1.90;;;1.50;;
8040;SDS011;4063;48.140;10.250;2023-12-20T12:00:13;2.57;;;1.27;;
8040;SDS011;4063;48.140;10.250;2023-12-20T12:02:40;1.17;;;1.10;;
8040;SDS011;4063;48.140;10.250;2023-12-20T12:05:06;0.90;;;0.90;;
8040;SDS011;4063;48.140;10.250;2023-12-20T12:07:33;1.27;;;1.17;;
8040;SDS011;4063;48.140;10.250;2023-12-20T12:09:59;1.77;;;1.00;;
8040;SDS011;4063;48.140;10.250;2023-12-20T12:12:25;1.30;;;1.20;;
8040;SDS011;4063;48.140;10.250;2023-12-20T12:14:52;7.40;;;3.90;;
8040;SDS011;4063;48.140;10.250;2023-12-20T12:17:18;1.90;;;1.70;;
8040;SDS011;4063;48.140;10.250;2023-12-20T12:19:44;1.80;;;1.67;;
8040;SDS011;4063;48.140;10.250;2023-12-20T12:22:12;1.80;;;1.60;;
8040;SDS011;4063;48.140;10.250;2023-12-20T12:24:42;1.47;;;1.37;;
8040;SDS011;4063;48.140;10.250;2023-12-20T12:27:09;1.50;;;1.40;;
8040;SDS011;4063;48.140;10.250;2023-12-20T12:29:35;5.40;;;2.37;;
8040;SDS011;4063;48.140;10.250;2023-12-20T12:32:02;4.33;;;2.97;;
8040;SDS011;4063;48.140;10.250;2023-12-20T12:34:30;11.40;;;8.73;;
8040;SDS011;4063;48.140;10.250;2023-12-20T12:36:56;3.53;;;2.33;;
8040;SDS011;4063;48.140;10.250;2023-12-20T12:39:23;3.60;;;2.20;;
8040;SDS011;4063;48.140;10.250;2023-12-20T12:41:50;1.70;;;1.60;;
8040;SDS011;4063;48.140;10.250;2023-12-20T12:44:16;4.57;;;2.50;;
8040;SDS011;4063;48.140;10.250;2023-12-20T12:46:43;2.80;;;2.43;;
8040;SDS011;4063;48.140;10.250;2023-12-20T12:49:09;2.80;;;2.43;;
8040;SDS011;4063;48.140;10.250;2023-12-20T12:51:35;3.20;;;2.23;;
8040;SDS011;4063;48.140;10.250;2023-12-20T12:54:01;3.40;;;2.27;;
8040;SDS011;4063;48.140;10.250;2023-12-20T12:56:27;2.73;;;1.80;;
8040;SDS011;4063;48.140;10.250;2023-12-20T12:58:53;2.13;;;1.93;;
8040;SDS011;4063;48.140;10.250;2023-12-20T13:01:19;1.40;;;1.27;;
8040;SDS011;4063;48.140;10.250;2023-12-20T13:03:45;2.67;;;1.40;;
8040;SDS011;4063;48.140;10.250;2023-12-20T13:06:11;1.60;;;1.50;;
8040;SDS011;4063;48.140;10.250;2023-12-20T13:08:37;1.70;;;1.57;;
8040;SDS011;4063;48.140;10.250;2023-12-20T13:11:03;1.27;;;1.17;;
8040;SDS011;4063;48.140;10.250;2023-12-20T13:13:30;1.50;;;1.40;;
8040;SDS011;4063;48.140;10.250;2023-12-20T13:15:56;2.10;;;1.60;;
8040;SDS011;4063;48.140;10.250;2023-12-20T13:18:22;1.70;;;1.40;;
8040;SDS011;4063;48.140;10.250;2023-12-20T13:20:48;1.47;;;1.20;;
8040;SDS011;4063;48.140;10.250;2023-12-20T13:23:14;1.70;;;1.27;;
8040;SDS011;4063;48.140;10.250;2023-12-20T13:25:41;2.83;;;1.80;;
8040;SDS011;4063;48.140;10.250;2023-12-20T13:28:07;1.60;;;1.50;;
8040;SDS011;4063;48.140;10.250;2023-12-20T13:30:33;2.60;;;1.60;;
8040;SDS011;4063;48.140;10.250;2023-12-20T13:32:59;3.87;;;1.73;;
8040;SDS011;4063;48.140;10.250;2023-12-20T13:35:25;5.10;;;1.80;;
8040;SDS011;4063;48.140;10.250;2023-12-20T13:37:51;3.57;;;1.50;;
8040;SDS011;4063;48.140;10.250;2023-12-20T13:40:18;2.90;;;1.40;;
8040;SDS011;4063;48.140;10.250;2023-12-20T13:42:44;1.40;;;1.30;;
8040;SDS011;4063;48.140;10.250;2023-12-20T13:45:10;1.83;;;1.57;;
8040;SDS011;4063;48.140;10.250;2023-12-20T13:47:36;1.60;;;1.50;;
8040;SDS011;4063;48.140;10.250;2023-12-20T13:50:03;1.60;;;1.40;;
8040;SDS011;4063;48.140;10.250;2023-12-20T13:52:29;1.77;;;1.50;;
8040;SDS011;4063;48.140;10.250;2023-12-20T13:54:55;1.80;;;1.70;;
8040;SDS011;4063;48.140;10.250;2023-12-20T13:57:21;2.30;;;1.60;;
8040;SDS011;4063;48.140;10.250;2023-12-20T13:59:47;2.43;;;1.83;;
8040;SDS011;4063;48.140;10.250;2023-12-20T14:02:13;4.00;;;1.70;;
8040;SDS011;4063;48.140;10.250;2023-12-20T14:04:40;1.77;;;1.60;;
8040;SDS011;4063;48.140;10.250;2023-12-20T14:07:06;1.77;;;1.47;;
8040;SDS011;4063;48.140;10.250;2023-12-20T14:09:32;2.30;;;1.07;;
8040;SDS011;4063;48.140;10.250;2023-12-20T14:11:58;3.20;;;1.63;;
8040;SDS011;4063;48.140;10.250;2023-12-20T14:14:24;2.37;;;1.90;;
8040;SDS011;4063;48.140;10.250;2023-12-20T14:16:50;3.03;;;1.80;;
8040;SDS011;4063;48.140;10.250;2023-12-20T14:19:16;3.00;;;2.50;;
8040;SDS011;4063;48.140;10.250;2023-12-20T14:21:43;2.43;;;1.60;;
8040;SDS011;4063;48.140;10.250;2023-12-20T14:24:11;3.70;;;2.07;;
8040;SDS011;4063;48.140;10.250;2023-12-20T14:26:39;4.77;;;2.60;;
8040;SDS011;4063;48.140;10.250;2023-12-20T14:29:05;3.03;;;2.13;;
8040;SDS011;4063;48.140;10.250;2023-12-20T14:31:32;4.30;;;1.77;;
8040;SDS011;4063;48.140;10.250;2023-12-20T14:33:58;2.87;;;2.10;;
8040;SDS011;4063;48.140;10.250;2023-12-20T14:36:26;2.03;;;1.77;;
8040;SDS011;4063;48.140;10.250;2023-12-20T14:38:51;4.17;;;2.47;;
8040;SDS011;4063;48.140;10.250;2023-12-20T14:41:17;2.47;;;1.63;;
8040;SDS011;4063;48.140;10.250;2023-12-20T14:43:44;6.63;;;3.13;;
8040;SDS011;4063;48.140;10.250;2023-12-20T14:46:12;1.60;;;1.50;;
8040;SDS011;4063;48.140;10.250;2023-12-20T14:48:38;1.80;;;1.63;;
8040;SDS011;4063;48.140;10.250;2023-12-20T14:51:04;4.23;;;2.20;;
8040;SDS011;4063;48.140;10.250;2023-12-20T14:53:30;3.90;;;2.70;;
8040;SDS011;4063;48.140;10.250;2023-12-20T14:55:56;5.77;;;3.20;;
8040;SDS011;4063;48.140;10.250;2023-12-20T14:58:22;7.87;;;3.30;;